sensor_id;sensor_type;location;lat;lon;timestamp;P1;durP1;ratioP1;P2;durP2;ratioP2
34060;SDS011;20336;-33.424;-70.638;2022-10-12T00:01:34;17.88;;;3.95;;
34060;SDS011;20336;-33.424;-70.638;2022-10-12T00:04:01;15.98;;;4.20;;
34060;SDS011;20336;-33.424;-70.638;2022-10-12T00:06:28;18.20;;;3.53;;
34060;SDS011;20336;-33.424;-70.638;2022-10-12T00:08:55;16.50;;;4.30;;
34060;SDS011;20336;-33.424;-70.638;2022-10-12T00:11:23;20.45;;;4.68;;
34060;SDS011;20336;-33.424;-70.638;2022-10-12T00:13:50;15.57;;;4.40;;
34060;SDS011;20336;-33.424;-70.638;2022-10-12T00:16:18;17.33;;;4.90;;
34060;SDS011;20336;-33.424;-70.638;2022-10-12T00:18:48;11.57;;;3.78;;
34060;SDS011;20336;-33.424;-70.638;2022-10-12T00:21:15;13.00;;;3.78;;
34060;SDS011;20336;-33.424;-70.638;2022-10-12T00:23:43;14.23;;;4.10;;
34060;SDS011;20336;-33.424;-70.638;2022-10-12T00:26:14;11.70;;;3.50;;
34060;SDS011;20336;-33.424;-70.638;2022-10-12T00:28:41;17.77;;;4.60;;
34060;SDS011;20336;-33.424;-70.638;2022-10-12T00:31:09;54.80;;;6.97;;
34060;SDS011;20336;-33.424;-70.638;2022-10-12T00:33:37;34.23;;;6.30;;
34060;SDS011;20336;-33.424;-70.638;2022-10-12T00:36:37;36.17;;;6.00;;
34060;SDS011;20336;-33.424;-70.638;2022-10-12T00:38:58;18.87;;;4.70;;
34060;SDS011;20336;-33.424;-70.638;2022-10-12T00:41:27;16.33;;;4.13;;
34060;SDS011;20336;-33.424;-70.638;2022-10-12T00:43:54;18.00;;;4.70;;
34060;SDS011;20336;-33.424;-70.638;2022-10-12T00:49:15;18.63;;;4.57;;
34060;SDS011;20336;-33.424;-70.638;2022-10-12T00:51:44;10.10;;;3.97;;
34060;SDS011;20336;-33.424;-70.638;2022-10-12T00:54:14;20.83;;;4.73;;
34060;SDS011;20336;-33.424;-70.638;2022-10-12T00:56:43;13.23;;;4.10;;
34060;SDS011;20336;-33.424;-70.638;2022-10-12T00:59:11;14.10;;;4.50;;
34060;SDS011;20336;-33.424;-70.638;2022-10-12T01:01:39;14.47;;;4.60;;
34060;SDS011;20336;-33.424;-70.638;2022-10-12T01:04:06;18.90;;;5.23;;
34060;SDS011;20336;-33.424;-70.638;2022-10-12T01:06:33;15.63;;;4.23;;
34060;SDS011;20336;-33.424;-70.638;2022-10-12T01:09:00;21.57;;;5.53;;
34060;SDS011;20336;-33.424;-70.638;2022-10-12T01:11:28;17.40;;;4.97;;
34060;SDS011;20336;-33.424;-70.638;2022-10-12T01:13:54;18.80;;;4.83;;
34060;SDS011;20336;-33.424;-70.638;2022-10-12T01:21:44;20.63;;;5.30;;
34060;SDS011;20336;-33.424;-70.638;2022-10-12T01:24:33;17.47;;;5.10;;
34060;SDS011;20336;-33.424;-70.638;2022-10-12T01:34:43;18.73;;;4.90;;
34060;SDS011;20336;-33.424;-70.638;2022-10-12T01:39:51;13.33;;;4.53;;
34060;SDS011;20336;-33.424;-70.638;2022-10-12T01:42:38;17.07;;;4.43;;
34060;SDS011;20336;-33.424;-70.638;2022-10-12T01:45:08;20.57;;;4.83;;
34060;SDS011;20336;-33.424;-70.638;2022-10-12T01:47:35;18.73;;;4.43;;
34060;SDS011;20336;-33.424;-70.638;2022-10-12T01:50:04;13.53;;;4.23;;
34060;SDS011;20336;-33.424;-70.638;2022-10-12T01:52:41;14.33;;;4.50;;
34060;SDS011;20336;-33.424;-70.638;2022-10-12T01:57:52;21.17;;;4.63;;
34060;SDS011;20336;-33.424;-70.638;2022-10-12T02:00:22;15.80;;;4.40;;
34060;SDS011;20336;-33.424;-70.638;2022-10-12T02:05:26;14.67;;;4.33;;
34060;SDS011;20336;-33.424;-70.638;2022-10-12T02:08:00;17.17;;;4.47;;
34060;SDS011;20336;-33.424;-70.638;2022-10-12T02:10:39;17.80;;;3.90;;
34060;SDS011;20336;-33.424;-70.638;2022-10-12T02:13:09;12.63;;;4.63;;
34060;SDS011;20336;-33.424;-70.638;2022-10-12T02:15:37;19.57;;;4.63;;
34060;SDS011;20336;-33.424;-70.638;2022-10-12T02:18:04;16.57;;;4.67;;
34060;SDS011;20336;-33.424;-70.638;2022-10-12T02:20:32;16.03;;;4.83;;
34060;SDS011;20336;-33.424;-70.638;2022-10-12T02:22:59;28.20;;;5.43;;
34060;SDS011;20336;-33.424;-70.638;2022-10-12T02:25:27;17.30;;;4.57;;
34060;SDS011;20336;-33.424;-70.638;2022-10-12T02:27:57;22.50;;;4.60;;
34060;SDS011;20336;-33.424;-70.638;2022-10-12T02:30:24;17.07;;;4.70;;
34060;SDS011;20336;-33.424;-70.638;2022-10-12T02:32:53;17.33;;;5.17;;
34060;SDS011;20336;-33.424;-70.638;2022-10-12T02:35:24;17.97;;;5.07;;
34060;SDS011;20336;-33.424;-70.638;2022-10-12T02:37:54;21.27;;;5.00;;
34060;SDS011;20336;-33.424;-70.638;2022-10-12T02:40:28;16.47;;;5.00;;
34060;SDS011;20336;-33.424;-70.638;2022-10-12T02:42:57;17.10;;;5.10;;
34060;SDS011;20336;-33.424;-70.638;2022-10-12T02:45:26;13.50;;;4.87;;
34060;SDS011;20336;-33.424;-70.638;2022-10-12T02:47:54;22.87;;;5.50;;
34060;SDS011;20336;-33.424;-70.638;2022-10-12T02:50:23;19.37;;;6.23;;
34060;SDS011;20336;-33.424;-70.638;2022-10-12T02:52:50;25.00;;;5.87;;
34060;SDS011;20336;-33.424;-70.638;2022-10-12T02:55:18;21.27;;;6.10;;
34060;SDS011;20336;-33.424;-70.638;2022-10-12T02:57:44;16.20;;;5.53;;
34060;SDS011;20336;-33.424;-70.638;2022-10-12T03:00:11;20.60;;;5.33;;
34060;SDS011;20336;-33.424;-70.638;2022-10-12T03:02:38;19.40;;;5.33;;
34060;SDS011;20336;-33.424;-70.638;2022-10-12T03:05:05;20.73;;;5.83;;
34060;SDS011;20336;-33.424;-70.638;2022-10-12T03:07:32;15.20;;;5.77;;
34060;SDS011;20336;-33.424;-70.638;2022-10-12T03:09:59;16.80;;;5.40;;
34060;SDS011;20336;-33.424;-70.638;2022-10-12T03:12:26;21.27;;;7.20;;
34060;SDS011;20336;-33.424;-70.638;2022-10-12T03:14:53;17.57;;;5.93;;
34060;SDS011;20336;-33.424;-70.638;2022-10-12T03:17:20;17.97;;;5.83;;
34060;SDS011;20336;-33.424;-70.638;2022-10-12T03:19:46;24.20;;;7.60;;
34060;SDS011;20336;-33.424;-70.638;2022-10-12T03:22:13;24.07;;;7.53;;
34060;SDS011;20336;-33.424;-70.638;2022-10-12T03:24:40;13.57;;;5.57;;
34060;SDS011;20336;-33.424;-70.638;2022-10-12T03:27:07;19.97;;;6.00;;
34060;SDS011;20336;-33.424;-70.638;2022-10-12T03:29:34;19.07;;;6.67;;
34060;SDS011;20336;-33.424;-70.638;2022-10-12T03:32:01;16.33;;;6.20;;
34060;SDS011;20336;-33.424;-70.638;2022-10-12T03:34:28;22.53;;;6.53;;
34060;SDS011;20336;-33.424;-70.638;2022-10-12T03:36:54;18.57;;;6.73;;
34060;SDS011;20336;-33.424;-70.638;2022-10-12T03:39:21;24.17;;;6.57;;
34060;SDS011;20336;-33.424;-70.638;2022-10-12T03:41:48;21.77;;;7.03;;
34060;SDS011;20336;-33.424;-70.638;2022-10-12T03:44:15;19.23;;;5.80;;
34060;SDS011;20336;-33.424;-70.638;2022-10-12T03:46:42;20.07;;;6.33;;
34060;SDS011;20336;-33.424;-70.638;2022-10-12T03:49:08;17.87;;;6.17;;
34060;SDS011;20336;-33.424;-70.638;2022-10-12T03:51:35;21.63;;;6.07;;
34060;SDS011;20336;-33.424;-70.638;2022-10-12T03:54:02;22.20;;;7.10;;
34060;SDS011;20336;-33.424;-70.638;2022-10-12T03:56:29;20.47;;;6.40;;
34060;SDS011;20336;-33.424;-70.638;2022-10-12T03:58:56;21.43;;;7.23;;
34060;SDS011;20336;-33.424;-70.638;2022-10-12T04:01:23;21.80;;;7.10;;
34060;SDS011;20336;-33.424;-70.638;2022-10-12T04:03:50;22.10;;;6.37;;
34060;SDS011;20336;-33.424;-70.638;2022-10-12T04:06:17;20.10;;;6.60;;
34060;SDS011;20336;-33.424;-70.638;2022-10-12T04:08:43;22.97;;;6.87;;
34060;SDS011;20336;-33.424;-70.638;2022-10-12T04:11:10;15.80;;;6.20;;
34060;SDS011;20336;-33.424;-70.638;2022-10-12T04:13:37;16.23;;;5.60;;
34060;SDS011;20336;-33.424;-70.638;2022-10-12T04:16:04;15.07;;;5.90;;
34060;SDS011;20336;-33.424;-70.638;2022-10-12T04:18:32;19.77;;;6.63;;
34060;SDS011;20336;-33.424;-70.638;2022-10-12T04:20:59;21.73;;;6.63;;
34060;SDS011;20336;-33.424;-70.638;2022-10-12T04:23:26;21.60;;;6.43;;
34060;SDS011;20336;-33.424;-70.638;2022-10-12T04:25:53;19.13;;;6.50;;
34060;SDS011;20336;-33.424;-70.638;2022-10-12T04:28:20;24.17;;;7.00;;
34060;SDS011;20336;-33.424;-70.638;2022-10-12T04:30:47;21.50;;;6.60;;
34060;SDS011;20336;-33.424;-70.638;2022-10-12T04:33:14;21.60;;;6.77;;
34060;SDS011;20336;-33.424;-70.638;2022-10-12T04:35:41;14.13;;;5.53;;
34060;SDS011;20336;-33.424;-70.638;2022-10-12T04:38:07;22.20;;;6.40;;
34060;SDS011;20336;-33.424;-70.638;2022-10-12T04:40:34;17.47;;;5.90;;
34060;SDS011;20336;-33.424;-70.638;2022-10-12T04:43:01;18.97;;;6.20;;
34060;SDS011;20336;-33.424;-70.638;2022-10-12T04:45:28;20.80;;;7.10;;
34060;SDS011;20336;-33.424;-70.638;2022-10-12T04:47:55;18.83;;;6.30;;
34060;SDS011;20336;-33.424;-70.638;2022-10-12T04:50:21;17.07;;;6.23;;
34060;SDS011;20336;-33.424;-70.638;2022-10-12T04:52:48;15.77;;;5.23;;
34060;SDS011;20336;-33.424;-70.638;2022-10-12T04:55:15;13.03;;;5.80;;
34060;SDS011;20336;-33.424;-70.638;2022-10-12T04:57:42;21.00;;;6.53;;
34060;SDS011;20336;-33.424;-70.638;2022-10-12T05:00:09;18.17;;;5.90;;
34060;SDS011;20336;-33.424;-70.638;2022-10-12T05:02:36;15.63;;;5.63;;
34060;SDS011;20336;-33.424;-70.638;2022-10-12T05:05:03;15.90;;;5.67;;
34060;SDS011;20336;-33.424;-70.638;2022-10-12T05:07:29;23.40;;;6.30;;
34060;SDS011;20336;-33.424;-70.638;2022-10-12T05:09:56;21.47;;;6.77;;
34060;SDS011;20336;-33.424;-70.638;2022-10-12T05:12:23;17.20;;;5.90;;
34060;SDS011;20336;-33.424;-70.638;2022-10-12T05:14:50;19.30;;;6.50;;
34060;SDS011;20336;-33.424;-70.638;2022-10-12T05:17:16;21.27;;;6.70;;
34060;SDS011;20336;-33.424;-70.638;2022-10-12T05:19:43;17.47;;;6.80;;
34060;SDS011;20336;-33.424;-70.638;2022-10-12T05:22:10;15.87;;;6.13;;
34060;SDS011;20336;-33.424;-70.638;2022-10-12T05:24:37;19.57;;;7.13;;
34060;SDS011;20336;-33.424;-70.638;2022-10-12T05:27:03;21.10;;;7.87;;
34060;SDS011;20336;-33.424;-70.638;2022-10-12T05:29:30;23.10;;;7.70;;
34060;SDS011;20336;-33.424;-70.638;2022-10-12T05:31:57;20.57;;;7.40;;
34060;SDS011;20336;-33.424;-70.638;2022-10-12T05:34:24;20.80;;;7.93;;
34060;SDS011;20336;-33.424;-70.638;2022-10-12T05:36:51;26.87;;;7.90;;
34060;SDS011;20336;-33.424;-70.638;2022-10-12T05:39:18;24.27;;;7.70;;
34060;SDS011;20336;-33.424;-70.638;2022-10-12T05:41:45;17.00;;;6.67;;
34060;SDS011;20336;-33.424;-70.638;2022-10-12T05:44:12;18.67;;;6.03;;
34060;SDS011;20336;-33.424;-70.638;2022-10-12T05:46:38;17.23;;;6.80;;
34060;SDS011;20336;-33.424;-70.638;2022-10-12T05:49:05;23.90;;;6.90;;
34060;SDS011;20336;-33.424;-70.638;2022-10-12T05:51:32;23.47;;;6.80;;
34060;SDS011;20336;-33.424;-70.638;2022-10-12T05:53:59;19.97;;;7.27;;
34060;SDS011;20336;-33.424;-70.638;2022-10-12T05:56:26;17.83;;;6.93;;
34060;SDS011;20336;-33.424;-70.638;2022-10-12T05:58:53;20.73;;;7.30;;
34060;SDS011;20336;-33.424;-70.638;2022-10-12T06:01:19;27.73;;;7.90;;
34060;SDS011;20336;-33.424;-70.638;2022-10-12T06:03:46;32.17;;;8.27;;
34060;SDS011;20336;-33.424;-70.638;2022-10-12T06:06:13;23.90;;;8.20;;
34060;SDS011;20336;-33.424;-70.638;2022-10-12T06:08:40;17.37;;;7.00;;
34060;SDS011;20336;-33.424;-70.638;2022-10-12T06:11:07;25.63;;;7.87;;
34060;SDS011;20336;-33.424;-70.638;2022-10-12T06:13:34;22.23;;;8.30;;
34060;SDS011;20336;-33.424;-70.638;2022-10-12T06:16:01;28.00;;;7.90;;
34060;SDS011;20336;-33.424;-70.638;2022-10-12T06:18:27;30.27;;;8.00;;
34060;SDS011;20336;-33.424;-70.638;2022-10-12T06:20:54;31.23;;;7.97;;
34060;SDS011;20336;-33.424;-70.638;2022-10-12T06:23:21;23.20;;;7.80;;
34060;SDS011;20336;-33.424;-70.638;2022-10-12T06:25:49;19.47;;;7.20;;
34060;SDS011;20336;-33.424;-70.638;2022-10-12T06:28:17;23.13;;;7.53;;
34060;SDS011;20336;-33.424;-70.638;2022-10-12T06:30:54;23.17;;;7.23;;
34060;SDS011;20336;-33.424;-70.638;2022-10-12T06:33:21;20.80;;;7.30;;
34060;SDS011;20336;-33.424;-70.638;2022-10-12T06:35:49;18.07;;;6.30;;
34060;SDS011;20336;-33.424;-70.638;2022-10-12T06:38:16;20.47;;;6.77;;
34060;SDS011;20336;-33.424;-70.638;2022-10-12T06:40:42;14.00;;;6.70;;
34060;SDS011;20336;-33.424;-70.638;2022-10-12T06:43:09;20.73;;;7.43;;
34060;SDS011;20336;-33.424;-70.638;2022-10-12T06:45:36;21.57;;;6.83;;
34060;SDS011;20336;-33.424;-70.638;2022-10-12T06:48:05;19.80;;;6.60;;
34060;SDS011;20336;-33.424;-70.638;2022-10-12T06:50:32;18.97;;;7.03;;
34060;SDS011;20336;-33.424;-70.638;2022-10-12T06:52:59;26.33;;;7.00;;
34060;SDS011;20336;-33.424;-70.638;2022-10-12T06:55:26;17.33;;;6.30;;
34060;SDS011;20336;-33.424;-70.638;2022-10-12T06:57:54;19.47;;;6.43;;
34060;SDS011;20336;-33.424;-70.638;2022-10-12T07:00:21;19.70;;;6.50;;
34060;SDS011;20336;-33.424;-70.638;2022-10-12T07:02:48;17.27;;;5.97;;
34060;SDS011;20336;-33.424;-70.638;2022-10-12T07:05:15;17.27;;;6.17;;
34060;SDS011;20336;-33.424;-70.638;2022-10-12T07:07:42;22.17;;;6.60;;
34060;SDS011;20336;-33.424;-70.638;2022-10-12T07:10:09;15.60;;;6.40;;
34060;SDS011;20336;-33.424;-70.638;2022-10-12T07:12:36;16.47;;;6.33;;
34060;SDS011;20336;-33.424;-70.638;2022-10-12T07:15:06;24.80;;;7.30;;
34060;SDS011;20336;-33.424;-70.638;2022-10-12T07:17:33;20.27;;;7.00;;
34060;SDS011;20336;-33.424;-70.638;2022-10-12T07:20:00;20.53;;;7.20;;
34060;SDS011;20336;-33.424;-70.638;2022-10-12T07:22:27;18.70;;;6.53;;
34060;SDS011;20336;-33.424;-70.638;2022-10-12T07:24:53;22.93;;;7.67;;
34060;SDS011;20336;-33.424;-70.638;2022-10-12T07:27:20;16.07;;;6.80;;
34060;SDS011;20336;-33.424;-70.638;2022-10-12T07:29:47;20.10;;;6.67;;
34060;SDS011;20336;-33.424;-70.638;2022-10-12T07:32:14;18.97;;;6.80;;
34060;SDS011;20336;-33.424;-70.638;2022-10-12T07:34:41;16.10;;;6.53;;
34060;SDS011;20336;-33.424;-70.638;2022-10-12T07:37:09;22.33;;;6.57;;
34060;SDS011;20336;-33.424;-70.638;2022-10-12T07:39:36;22.77;;;7.37;;
34060;SDS011;20336;-33.424;-70.638;2022-10-12T07:42:03;16.93;;;7.30;;
34060;SDS011;20336;-33.424;-70.638;2022-10-12T07:44:30;18.57;;;7.10;;
34060;SDS011;20336;-33.424;-70.638;2022-10-12T07:46:57;16.27;;;7.03;;
34060;SDS011;20336;-33.424;-70.638;2022-10-12T07:49:24;15.40;;;7.17;;
34060;SDS011;20336;-33.424;-70.638;2022-10-12T07:51:51;19.33;;;6.50;;
34060;SDS011;20336;-33.424;-70.638;2022-10-12T07:54:19;21.17;;;7.17;;
34060;SDS011;20336;-33.424;-70.638;2022-10-12T07:56:46;17.63;;;7.63;;
34060;SDS011;20336;-33.424;-70.638;2022-10-12T07:59:13;21.17;;;7.70;;
34060;SDS011;20336;-33.424;-70.638;2022-10-12T08:01:39;30.40;;;9.13;;
34060;SDS011;20336;-33.424;-70.638;2022-10-12T08:04:06;24.90;;;8.43;;
34060;SDS011;20336;-33.424;-70.638;2022-10-12T08:06:33;17.57;;;7.83;;
34060;SDS011;20336;-33.424;-70.638;2022-10-12T08:09:00;22.30;;;8.67;;
34060;SDS011;20336;-33.424;-70.638;2022-10-12T08:11:27;26.17;;;8.77;;
34060;SDS011;20336;-33.424;-70.638;2022-10-12T08:13:54;18.47;;;7.50;;
34060;SDS011;20336;-33.424;-70.638;2022-10-12T08:16:21;18.77;;;7.80;;
34060;SDS011;20336;-33.424;-70.638;2022-10-12T08:18:48;19.47;;;7.53;;
34060;SDS011;20336;-33.424;-70.638;2022-10-12T08:21:16;16.37;;;6.83;;
34060;SDS011;20336;-33.424;-70.638;2022-10-12T08:23:43;18.57;;;7.00;;
34060;SDS011;20336;-33.424;-70.638;2022-10-12T08:26:10;17.57;;;6.93;;
34060;SDS011;20336;-33.424;-70.638;2022-10-12T08:28:37;19.80;;;6.90;;
34060;SDS011;20336;-33.424;-70.638;2022-10-12T08:31:09;23.50;;;8.07;;
34060;SDS011;20336;-33.424;-70.638;2022-10-12T08:33:36;20.17;;;7.70;;
34060;SDS011;20336;-33.424;-70.638;2022-10-12T08:36:04;18.37;;;7.10;;
34060;SDS011;20336;-33.424;-70.638;2022-10-12T08:38:32;14.30;;;6.90;;
34060;SDS011;20336;-33.424;-70.638;2022-10-12T08:43:38;18.10;;;7.87;;
34060;SDS011;20336;-33.424;-70.638;2022-10-12T08:46:08;24.33;;;8.27;;
34060;SDS011;20336;-33.424;-70.638;2022-10-12T08:51:22;22.93;;;8.47;;
34060;SDS011;20336;-33.424;-70.638;2022-10-12T08:54:05;27.07;;;8.53;;
34060;SDS011;20336;-33.424;-70.638;2022-10-12T08:56:33;24.70;;;9.23;;
34060;SDS011;20336;-33.424;-70.638;2022-10-12T08:59:00;17.20;;;8.23;;
34060;SDS011;20336;-33.424;-70.638;2022-10-12T09:01:29;21.13;;;8.53;;
34060;SDS011;20336;-33.424;-70.638;2022-10-12T09:06:39;26.03;;;10.13;;
34060;SDS011;20336;-33.424;-70.638;2022-10-12T09:11:57;25.53;;;9.90;;
34060;SDS011;20336;-33.424;-70.638;2022-10-12T09:14:35;21.07;;;9.80;;
34060;SDS011;20336;-33.424;-70.638;2022-10-12T09:17:04;32.53;;;10.53;;
34060;SDS011;20336;-33.424;-70.638;2022-10-12T09:19:36;26.40;;;10.50;;
34060;SDS011;20336;-33.424;-70.638;2022-10-12T09:22:04;28.70;;;11.40;;
34060;SDS011;20336;-33.424;-70.638;2022-10-12T09:24:35;29.13;;;11.03;;
34060;SDS011;20336;-33.424;-70.638;2022-10-12T09:27:17;29.13;;;10.60;;
34060;SDS011;20336;-33.424;-70.638;2022-10-12T09:29:46;29.77;;;11.53;;
34060;SDS011;20336;-33.424;-70.638;2022-10-12T09:34:58;26.00;;;10.73;;
34060;SDS011;20336;-33.424;-70.638;2022-10-12T09:37:29;21.37;;;10.53;;
34060;SDS011;20336;-33.424;-70.638;2022-10-12T09:39:57;37.60;;;10.70;;
34060;SDS011;20336;-33.424;-70.638;2022-10-12T09:42:24;60.87;;;14.17;;
34060;SDS011;20336;-33.424;-70.638;2022-10-12T09:44:52;83.93;;;14.50;;
34060;SDS011;20336;-33.424;-70.638;2022-10-12T09:47:31;72.37;;;18.77;;
34060;SDS011;20336;-33.424;-70.638;2022-10-12T09:49:59;34.43;;;10.33;;
34060;SDS011;20336;-33.424;-70.638;2022-10-12T09:52:27;31.10;;;10.03;;
34060;SDS011;20336;-33.424;-70.638;2022-10-12T09:54:59;30.60;;;9.73;;
34060;SDS011;20336;-33.424;-70.638;2022-10-12T09:57:30;33.47;;;9.87;;
34060;SDS011;20336;-33.424;-70.638;2022-10-12T09:59:59;24.77;;;9.57;;
34060;SDS011;20336;-33.424;-70.638;2022-10-12T10:02:30;17.63;;;7.90;;
34060;SDS011;20336;-33.424;-70.638;2022-10-12T10:05:12;26.33;;;8.97;;
34060;SDS011;20336;-33.424;-70.638;2022-10-12T10:07:39;22.83;;;8.60;;
34060;SDS011;20336;-33.424;-70.638;2022-10-12T10:12:46;29.57;;;9.10;;
34060;SDS011;20336;-33.424;-70.638;2022-10-12T10:15:18;25.47;;;8.23;;
34060;SDS011;20336;-33.424;-70.638;2022-10-12T10:17:47;28.80;;;9.27;;
34060;SDS011;20336;-33.424;-70.638;2022-10-12T10:20:22;21.73;;;9.50;;
34060;SDS011;20336;-33.424;-70.638;2022-10-12T10:22:50;23.53;;;9.30;;
34060;SDS011;20336;-33.424;-70.638;2022-10-12T10:25:18;24.33;;;9.73;;
34060;SDS011;20336;-33.424;-70.638;2022-10-12T10:27:46;21.53;;;9.73;;
34060;SDS011;20336;-33.424;-70.638;2022-10-12T10:32:42;24.27;;;8.83;;
34060;SDS011;20336;-33.424;-70.638;2022-10-12T10:37:42;33.60;;;12.03;;
34060;SDS011;20336;-33.424;-70.638;2022-10-12T10:40:16;29.20;;;9.70;;
34060;SDS011;20336;-33.424;-70.638;2022-10-12T10:42:46;25.20;;;10.50;;
34060;SDS011;20336;-33.424;-70.638;2022-10-12T10:45:19;30.30;;;9.93;;
34060;SDS011;20336;-33.424;-70.638;2022-10-12T10:47:47;30.30;;;11.10;;
34060;SDS011;20336;-33.424;-70.638;2022-10-12T10:50:23;24.83;;;9.90;;
34060;SDS011;20336;-33.424;-70.638;2022-10-12T10:52:53;23.60;;;9.77;;
34060;SDS011;20336;-33.424;-70.638;2022-10-12T10:55:23;33.97;;;11.63;;
34060;SDS011;20336;-33.424;-70.638;2022-10-12T11:00:20;28.73;;;10.93;;
34060;SDS011;20336;-33.424;-70.638;2022-10-12T11:05:22;21.23;;;8.90;;
34060;SDS011;20336;-33.424;-70.638;2022-10-12T11:07:52;25.27;;;10.07;;
34060;SDS011;20336;-33.424;-70.638;2022-10-12T11:12:56;34.97;;;11.37;;
34060;SDS011;20336;-33.424;-70.638;2022-10-12T11:15:27;35.17;;;11.40;;
34060;SDS011;20336;-33.424;-70.638;2022-10-12T11:17:59;34.80;;;11.90;;
34060;SDS011;20336;-33.424;-70.638;2022-10-12T11:20:30;23.50;;;11.47;;
34060;SDS011;20336;-33.424;-70.638;2022-10-12T11:23:19;27.60;;;12.23;;
34060;SDS011;20336;-33.424;-70.638;2022-10-12T11:26:10;37.53;;;11.93;;
34060;SDS011;20336;-33.424;-70.638;2022-10-12T11:28:38;26.57;;;12.33;;
34060;SDS011;20336;-33.424;-70.638;2022-10-12T11:31:06;30.20;;;13.17;;
34060;SDS011;20336;-33.424;-70.638;2022-10-12T11:33:40;29.17;;;12.20;;
34060;SDS011;20336;-33.424;-70.638;2022-10-12T11:36:12;27.10;;;12.10;;
34060;SDS011;20336;-33.424;-70.638;2022-10-12T11:38:57;28.27;;;12.13;;
34060;SDS011;20336;-33.424;-70.638;2022-10-12T11:44:08;32.83;;;15.10;;
34060;SDS011;20336;-33.424;-70.638;2022-10-12T11:46:43;28.23;;;13.97;;
34060;SDS011;20336;-33.424;-70.638;2022-10-12T11:49:13;35.43;;;13.60;;
34060;SDS011;20336;-33.424;-70.638;2022-10-12T11:51:44;34.13;;;13.47;;
34060;SDS011;20336;-33.424;-70.638;2022-10-12T11:56:49;30.60;;;14.87;;
34060;SDS011;20336;-33.424;-70.638;2022-10-12T12:06:58;25.30;;;13.63;;
34060;SDS011;20336;-33.424;-70.638;2022-10-12T12:09:35;28.70;;;13.10;;
34060;SDS011;20336;-33.424;-70.638;2022-10-12T12:12:07;33.57;;;12.57;;
34060;SDS011;20336;-33.424;-70.638;2022-10-12T12:17:22;33.20;;;13.87;;
34060;SDS011;20336;-33.424;-70.638;2022-10-12T12:19:50;37.33;;;15.07;;
34060;SDS011;20336;-33.424;-70.638;2022-10-12T12:30:02;38.37;;;17.10;;
34060;SDS011;20336;-33.424;-70.638;2022-10-12T12:32:42;31.53;;;14.10;;
34060;SDS011;20336;-33.424;-70.638;2022-10-12T12:40:39;47.43;;;16.90;;
34060;SDS011;20336;-33.424;-70.638;2022-10-12T12:45:53;34.57;;;16.03;;
34060;SDS011;20336;-33.424;-70.638;2022-10-12T12:51:05;31.77;;;16.33;;
34060;SDS011;20336;-33.424;-70.638;2022-10-12T12:53:34;41.07;;;15.50;;
34060;SDS011;20336;-33.424;-70.638;2022-10-12T12:56:15;31.63;;;15.40;;
34060;SDS011;20336;-33.424;-70.638;2022-10-12T13:08:55;28.70;;;14.20;;
34060;SDS011;20336;-33.424;-70.638;2022-10-12T13:19:19;32.90;;;15.10;;
34060;SDS011;20336;-33.424;-70.638;2022-10-12T13:21:47;39.30;;;15.23;;
34060;SDS011;20336;-33.424;-70.638;2022-10-12T13:26:44;33.78;;;13.70;;
34060;SDS011;20336;-33.424;-70.638;2022-10-12T13:30:14;29.92;;;14.48;;
34060;SDS011;20336;-33.424;-70.638;2022-10-12T13:32:18;43.33;;;15.38;;
34060;SDS011;20336;-33.424;-70.638;2022-10-12T13:34:48;32.17;;;14.43;;
34060;SDS011;20336;-33.424;-70.638;2022-10-12T13:37:15;29.25;;;14.13;;
34060;SDS011;20336;-33.424;-70.638;2022-10-12T13:39:43;30.05;;;14.25;;
34060;SDS011;20336;-33.424;-70.638;2022-10-12T13:42:17;30.52;;;15.07;;
34060;SDS011;20336;-33.424;-70.638;2022-10-12T13:44:47;36.47;;;16.17;;
34060;SDS011;20336;-33.424;-70.638;2022-10-12T13:47:25;33.40;;;13.73;;
34060;SDS011;20336;-33.424;-70.638;2022-10-12T13:49:52;32.55;;;14.43;;
34060;SDS011;20336;-33.424;-70.638;2022-10-12T13:52:26;35.45;;;14.50;;
34060;SDS011;20336;-33.424;-70.638;2022-10-12T13:54:54;34.17;;;14.05;;
34060;SDS011;20336;-33.424;-70.638;2022-10-12T13:59:55;39.90;;;15.88;;
34060;SDS011;20336;-33.424;-70.638;2022-10-12T14:02:24;37.05;;;16.23;;
34060;SDS011;20336;-33.424;-70.638;2022-10-12T14:05:01;33.92;;;15.60;;
34060;SDS011;20336;-33.424;-70.638;2022-10-12T14:07:31;36.13;;;15.02;;
34060;SDS011;20336;-33.424;-70.638;2022-10-12T14:10:02;36.22;;;14.27;;
34060;SDS011;20336;-33.424;-70.638;2022-10-12T14:12:30;31.08;;;13.48;;
34060;SDS011;20336;-33.424;-70.638;2022-10-12T14:14:57;37.58;;;14.95;;
34060;SDS011;20336;-33.424;-70.638;2022-10-12T14:17:24;39.28;;;15.98;;
34060;SDS011;20336;-33.424;-70.638;2022-10-12T14:19:52;31.85;;;15.10;;
34060;SDS011;20336;-33.424;-70.638;2022-10-12T14:22:20;37.40;;;15.30;;
34060;SDS011;20336;-33.424;-70.638;2022-10-12T14:24:48;45.67;;;14.82;;
34060;SDS011;20336;-33.424;-70.638;2022-10-12T14:27:23;32.00;;;14.32;;
34060;SDS011;20336;-33.424;-70.638;2022-10-12T14:29:51;40.17;;;15.65;;
34060;SDS011;20336;-33.424;-70.638;2022-10-12T14:35:02;33.67;;;14.68;;
34060;SDS011;20336;-33.424;-70.638;2022-10-12T14:37:29;35.90;;;15.25;;
34060;SDS011;20336;-33.424;-70.638;2022-10-12T14:39:56;37.63;;;15.70;;
34060;SDS011;20336;-33.424;-70.638;2022-10-12T14:42:31;36.95;;;15.35;;
34060;SDS011;20336;-33.424;-70.638;2022-10-12T14:44:59;34.33;;;14.07;;
34060;SDS011;20336;-33.424;-70.638;2022-10-12T14:49:57;34.95;;;15.30;;
34060;SDS011;20336;-33.424;-70.638;2022-10-12T14:54:52;40.88;;;16.45;;
34060;SDS011;20336;-33.424;-70.638;2022-10-12T14:57:19;38.92;;;17.17;;
34060;SDS011;20336;-33.424;-70.638;2022-10-12T14:59:46;41.85;;;16.70;;
34060;SDS011;20336;-33.424;-70.638;2022-10-12T15:02:17;40.15;;;15.52;;
34060;SDS011;20336;-33.424;-70.638;2022-10-12T15:04:45;34.88;;;15.52;;
34060;SDS011;20336;-33.424;-70.638;2022-10-12T15:07:13;31.13;;;15.18;;
34060;SDS011;20336;-33.424;-70.638;2022-10-12T15:09:40;37.63;;;15.63;;
34060;SDS011;20336;-33.424;-70.638;2022-10-12T15:12:09;36.75;;;15.60;;
34060;SDS011;20336;-33.424;-70.638;2022-10-12T15:14:36;36.25;;;16.10;;
34060;SDS011;20336;-33.424;-70.638;2022-10-12T15:17:03;46.30;;;16.75;;
34060;SDS011;20336;-33.424;-70.638;2022-10-12T15:19:30;39.80;;;16.42;;
34060;SDS011;20336;-33.424;-70.638;2022-10-12T15:21:59;43.60;;;17.10;;
34060;SDS011;20336;-33.424;-70.638;2022-10-12T15:24:26;35.80;;;16.77;;
34060;SDS011;20336;-33.424;-70.638;2022-10-12T15:26:52;43.15;;;16.35;;
34060;SDS011;20336;-33.424;-70.638;2022-10-12T15:29:19;39.53;;;14.68;;
34060;SDS011;20336;-33.424;-70.638;2022-10-12T15:31:46;32.33;;;14.27;;
34060;SDS011;20336;-33.424;-70.638;2022-10-12T15:34:13;33.35;;;15.68;;
34060;SDS011;20336;-33.424;-70.638;2022-10-12T15:36:40;31.13;;;15.20;;
34060;SDS011;20336;-33.424;-70.638;2022-10-12T15:39:07;30.92;;;15.38;;
34060;SDS011;20336;-33.424;-70.638;2022-10-12T15:41:34;31.45;;;14.98;;
34060;SDS011;20336;-33.424;-70.638;2022-10-12T15:44:01;35.75;;;14.15;;
34060;SDS011;20336;-33.424;-70.638;2022-10-12T15:46:28;36.13;;;15.82;;
34060;SDS011;20336;-33.424;-70.638;2022-10-12T15:48:55;44.78;;;16.73;;
34060;SDS011;20336;-33.424;-70.638;2022-10-12T15:51:22;36.20;;;14.57;;
34060;SDS011;20336;-33.424;-70.638;2022-10-12T15:53:50;31.80;;;15.73;;
34060;SDS011;20336;-33.424;-70.638;2022-10-12T15:56:17;29.60;;;14.60;;
34060;SDS011;20336;-33.424;-70.638;2022-10-12T15:58:44;27.40;;;14.02;;
34060;SDS011;20336;-33.424;-70.638;2022-10-12T16:01:12;32.22;;;14.80;;